sensor_id;sensor_type;location;lat;lon;timestamp;temperature;humidity
4390;DHT22;2209;48.982;8.406;2024-02-28T00:00:42;10.30;99.90
4390;DHT22;2209;48.982;8.406;2024-02-28T00:03:06;10.30;99.90
4390;DHT22;2209;48.982;8.406;2024-02-28T00:05:28;10.30;99.90
4390;DHT22;2209;48.982;8.406;2024-02-28T00:07:51;10.40;99.90
4390;DHT22;2209;48.982;8.406;2024-02-28T00:10:14;10.30;99.90
4390;DHT22;2209;48.982;8.406;2024-02-28T00:12:38;10.40;99.90
4390;DHT22;2209;48.982;8.406;2024-02-28T00:15:01;10.30;99.90
4390;DHT22;2209;48.982;8.406;2024-02-28T00:17:24;10.30;99.90
4390;DHT22;2209;48.982;8.406;2024-02-28T00:19:48;10.30;99.90
4390;DHT22;2209;48.982;8.406;2024-02-28T00:22:11;10.30;99.90
4390;DHT22;2209;48.982;8.406;2024-02-28T00:24:33;10.30;99.90
4390;DHT22;2209;48.982;8.406;2024-02-28T00:26:56;10.30;99.90
4390;DHT22;2209;48.982;8.406;2024-02-28T00:29:18;10.20;99.90
4390;DHT22;2209;48.982;8.406;2024-02-28T00:31:40;10.20;99.90
4390;DHT22;2209;48.982;8.406;2024-02-28T00:34:03;10.20;99.90
4390;DHT22;2209;48.982;8.406;2024-02-28T00:36:26;10.20;99.90
4390;DHT22;2209;48.982;8.406;2024-02-28T00:38:48;10.20;99.90
4390;DHT22;2209;48.982;8.406;2024-02-28T00:41:10;10.20;99.90
4390;DHT22;2209;48.982;8.406;2024-02-28T00:43:33;10.20;99.90
4390;DHT22;2209;48.982;8.406;2024-02-28T00:45:55;10.20;99.90
4390;DHT22;2209;48.982;8.406;2024-02-28T00:48:19;10.10;99.90
4390;DHT22;2209;48.982;8.406;2024-02-28T00:50:41;10.10;99.90
4390;DHT22;2209;48.982;8.406;2024-02-28T00:53:04;10.10;99.90
4390;DHT22;2209;48.982;8.406;2024-02-28T00:55:26;10.10;99.90
4390;DHT22;2209;48.982;8.406;2024-02-28T00:57:48;10.10;99.90
4390;DHT22;2209;48.982;8.406;2024-02-28T01:00:11;10.10;99.90
4390;DHT22;2209;48.982;8.406;2024-02-28T01:02:33;10.10;99.90
4390;DHT22;2209;48.982;8.406;2024-02-28T01:04:56;10.00;99.90
4390;DHT22;2209;48.982;8.406;2024-02-28T01:07:18;10.00;99.90
4390;DHT22;2209;48.982;8.406;2024-02-28T01:09:41;10.00;99.90
4390;DHT22;2209;48.982;8.406;2024-02-28T01:12:04;10.00;99.90
4390;DHT22;2209;48.982;8.406;2024-02-28T01:14:26;10.00;99.90
4390;DHT22;2209;48.982;8.406;2024-02-28T01:16:48;10.00;99.90
4390;DHT22;2209;48.982;8.406;2024-02-28T01:19:10;10.00;99.90
4390;DHT22;2209;48.982;8.406;2024-02-28T01:21:33;10.00;99.90
4390;DHT22;2209;48.982;8.406;2024-02-28T01:23:55;9.90;99.90
4390;DHT22;2209;48.982;8.406;2024-02-28T01:26:19;9.90;99.90
4390;DHT22;2209;48.982;8.406;2024-02-28T01:28:43;9.90;99.90
4390;DHT22;2209;48.982;8.406;2024-02-28T01:31:05;9.90;99.90
4390;DHT22;2209;48.982;8.406;2024-02-28T01:33:27;9.80;99.90
4390;DHT22;2209;48.982;8.406;2024-02-28T01:35:49;9.80;99.90
4390;DHT22;2209;48.982;8.406;2024-02-28T01:38:11;9.80;99.90
4390;DHT22;2209;48.982;8.406;2024-02-28T01:40:33;9.80;99.90
4390;DHT22;2209;48.982;8.406;2024-02-28T01:43:02;9.70;99.90
4390;DHT22;2209;48.982;8.406;2024-02-28T01:45:25;9.70;99.90
4390;DHT22;2209;48.982;8.406;2024-02-28T01:47:47;9.70;99.90
4390;DHT22;2209;48.982;8.406;2024-02-28T01:50:10;9.70;99.90
4390;DHT22;2209;48.982;8.406;2024-02-28T01:52:32;9.60;99.90
4390;DHT22;2209;48.982;8.406;2024-02-28T01:54:55;9.60;99.90
4390;DHT22;2209;48.982;8.406;2024-02-28T01:57:17;9.60;99.90
4390;DHT22;2209;48.982;8.406;2024-02-28T01:59:40;9.60;99.90
4390;DHT22;2209;48.982;8.406;2024-02-28T02:02:03;9.50;99.90
4390;DHT22;2209;48.982;8.406;2024-02-28T02:04:25;9.50;99.90
4390;DHT22;2209;48.982;8.406;2024-02-28T02:06:48;9.40;99.90
4390;DHT22;2209;48.982;8.406;2024-02-28T02:09:11;9.40;99.90
4390;DHT22;2209;48.982;8.406;2024-02-28T02:11:33;9.30;99.90
4390;DHT22;2209;48.982;8.406;2024-02-28T02:13:56;9.40;99.90
4390;DHT22;2209;48.982;8.406;2024-02-28T02:16:20;9.30;99.90
4390;DHT22;2209;48.982;8.406;2024-02-28T02:18:43;9.40;99.90
4390;DHT22;2209;48.982;8.406;2024-02-28T02:21:06;9.30;99.90
4390;DHT22;2209;48.982;8.406;2024-02-28T02:23:30;9.40;99.90
4390;DHT22;2209;48.982;8.406;2024-02-28T02:25:53;9.40;99.90
4390;DHT22;2209;48.982;8.406;2024-02-28T02:28:15;9.40;99.90
4390;DHT22;2209;48.982;8.406;2024-02-28T02:30:38;9.40;99.90
4390;DHT22;2209;48.982;8.406;2024-02-28T02:33:00;9.40;99.90
4390;DHT22;2209;48.982;8.406;2024-02-28T02:35:22;9.40;99.90
4390;DHT22;2209;48.982;8.406;2024-02-28T02:37:45;9.40;99.90
4390;DHT22;2209;48.982;8.406;2024-02-28T02:40:11;9.40;99.90
4390;DHT22;2209;48.982;8.406;2024-02-28T02:42:33;9.40;99.90
4390;DHT22;2209;48.982;8.406;2024-02-28T02:44:55;9.40;99.90
4390;DHT22;2209;48.982;8.406;2024-02-28T02:47:18;9.40;99.90
4390;DHT22;2209;48.982;8.406;2024-02-28T02:49:40;9.40;99.90
4390;DHT22;2209;48.982;8.406;2024-02-28T02:52:02;9.40;99.90
4390;DHT22;2209;48.982;8.406;2024-02-28T02:54:24;9.50;99.90
4390;DHT22;2209;48.982;8.406;2024-02-28T02:56:47;9.50;99.90
4390;DHT22;2209;48.982;8.406;2024-02-28T02:59:10;9.50;99.90
4390;DHT22;2209;48.982;8.406;2024-02-28T03:01:32;9.50;99.90
4390;DHT22;2209;48.982;8.406;2024-02-28T03:03:54;9.50;99.90
4390;DHT22;2209;48.982;8.406;2024-02-28T03:06:16;9.50;99.90
4390;DHT22;2209;48.982;8.406;2024-02-28T03:08:38;9.50;99.90
4390;DHT22;2209;48.982;8.406;2024-02-28T03:11:01;9.50;99.90
4390;DHT22;2209;48.982;8.406;2024-02-28T03:13:26;9.50;99.90
4390;DHT22;2209;48.982;8.406;2024-02-28T03:15:49;9.50;99.90
4390;DHT22;2209;48.982;8.406;2024-02-28T03:18:11;9.50;99.90
4390;DHT22;2209;48.982;8.406;2024-02-28T03:20:33;9.50;99.90
4390;DHT22;2209;48.982;8.406;2024-02-28T03:22:59;9.50;99.90
4390;DHT22;2209;48.982;8.406;2024-02-28T03:25:21;9.50;99.90
4390;DHT22;2209;48.982;8.406;2024-02-28T03:27:43;9.50;99.90
4390;DHT22;2209;48.982;8.406;2024-02-28T03:30:07;9.50;99.90
4390;DHT22;2209;48.982;8.406;2024-02-28T03:32:30;9.50;99.90
4390;DHT22;2209;48.982;8.406;2024-02-28T03:34:53;9.50;99.90
4390;DHT22;2209;48.982;8.406;2024-02-28T03:37:15;9.50;99.90
4390;DHT22;2209;48.982;8.406;2024-02-28T03:39:37;9.40;99.90
4390;DHT22;2209;48.982;8.406;2024-02-28T03:41:59;9.40;99.90
4390;DHT22;2209;48.982;8.406;2024-02-28T03:44:21;9.40;99.90
4390;DHT22;2209;48.982;8.406;2024-02-28T03:46:45;9.30;99.90
4390;DHT22;2209;48.982;8.406;2024-02-28T03:49:07;9.30;99.90
4390;DHT22;2209;48.982;8.406;2024-02-28T03:51:29;9.30;99.90
4390;DHT22;2209;48.982;8.406;2024-02-28T03:53:51;9.30;99.90
4390;DHT22;2209;48.982;8.406;2024-02-28T03:56:21;9.20;99.90
4390;DHT22;2209;48.982;8.406;2024-02-28T03:58:44;9.20;99.90
4390;DHT22;2209;48.982;8.406;2024-02-28T04:01:05;9.20;99.90
4390;DHT22;2209;48.982;8.406;2024-02-28T04:03:28;9.20;99.90
4390;DHT22;2209;48.982;8.406;2024-02-28T04:05:50;9.10;99.90
4390;DHT22;2209;48.982;8.406;2024-02-28T04:08:13;9.20;99.90
4390;DHT22;2209;48.982;8.406;2024-02-28T04:10:35;9.10;99.90
4390;DHT22;2209;48.982;8.406;2024-02-28T04:12:57;9.10;99.90
4390;DHT22;2209;48.982;8.406;2024-02-28T04:15:19;9.10;99.90
4390;DHT22;2209;48.982;8.406;2024-02-28T04:17:41;9.00;99.90
4390;DHT22;2209;48.982;8.406;2024-02-28T04:20:08;9.00;99.90
4390;DHT22;2209;48.982;8.406;2024-02-28T04:22:30;9.00;99.90
4390;DHT22;2209;48.982;8.406;2024-02-28T04:24:53;9.00;99.90
4390;DHT22;2209;48.982;8.406;2024-02-28T04:27:16;9.00;99.90
4390;DHT22;2209;48.982;8.406;2024-02-28T04:29:38;9.00;99.90
4390;DHT22;2209;48.982;8.406;2024-02-28T04:32:01;9.00;99.90
4390;DHT22;2209;48.982;8.406;2024-02-28T04:34:23;9.00;99.90
4390;DHT22;2209;48.982;8.406;2024-02-28T04:36:46;9.00;99.90
4390;DHT22;2209;48.982;8.406;2024-02-28T04:39:09;9.00;99.90
4390;DHT22;2209;48.982;8.406;2024-02-28T04:41:31;9.00;99.90
4390;DHT22;2209;48.982;8.406;2024-02-28T04:43:53;9.00;99.90
4390;DHT22;2209;48.982;8.406;2024-02-28T04:46:16;9.00;99.90
4390;DHT22;2209;48.982;8.406;2024-02-28T04:48:38;9.00;99.90
4390;DHT22;2209;48.982;8.406;2024-02-28T04:51:00;9.00;99.90
4390;DHT22;2209;48.982;8.406;2024-02-28T04:53:23;9.00;99.90
4390;DHT22;2209;48.982;8.406;2024-02-28T04:55:46;9.00;99.90
4390;DHT22;2209;48.982;8.406;2024-02-28T04:58:08;9.00;99.90
4390;DHT22;2209;48.982;8.406;2024-02-28T05:00:30;9.00;99.90
4390;DHT22;2209;48.982;8.406;2024-02-28T05:02:52;9.00;99.90
4390;DHT22;2209;48.982;8.406;2024-02-28T05:05:15;9.00;99.90
4390;DHT22;2209;48.982;8.406;2024-02-28T05:07:37;9.00;99.90
4390;DHT22;2209;48.982;8.406;2024-02-28T05:10:00;9.00;99.90
4390;DHT22;2209;48.982;8.406;2024-02-28T05:12:22;8.90;99.90
4390;DHT22;2209;48.982;8.406;2024-02-28T05:14:44;8.90;99.90
4390;DHT22;2209;48.982;8.406;2024-02-28T05:17:07;8.90;99.90
4390;DHT22;2209;48.982;8.406;2024-02-28T05:19:29;8.90;99.90
4390;DHT22;2209;48.982;8.406;2024-02-28T05:21:55;9.00;99.90
4390;DHT22;2209;48.982;8.406;2024-02-28T05:24:17;9.00;99.90
4390;DHT22;2209;48.982;8.406;2024-02-28T05:26:40;8.90;99.90
4390;DHT22;2209;48.982;8.406;2024-02-28T05:29:03;8.90;99.90
4390;DHT22;2209;48.982;8.406;2024-02-28T05:31:26;8.90;99.90
4390;DHT22;2209;48.982;8.406;2024-02-28T05:33:50;8.90;99.90
4390;DHT22;2209;48.982;8.406;2024-02-28T05:36:13;8.80;99.90
4390;DHT22;2209;48.982;8.406;2024-02-28T05:38:35;8.70;99.90
4390;DHT22;2209;48.982;8.406;2024-02-28T05:40:57;8.60;99.90
4390;DHT22;2209;48.982;8.406;2024-02-28T05:43:21;8.50;99.90
4390;DHT22;2209;48.982;8.406;2024-02-28T05:45:43;8.40;99.90
4390;DHT22;2209;48.982;8.406;2024-02-28T05:48:06;8.40;99.90
4390;DHT22;2209;48.982;8.406;2024-02-28T05:50:28;8.40;99.90
4390;DHT22;2209;48.982;8.406;2024-02-28T05:52:53;8.40;99.90
4390;DHT22;2209;48.982;8.406;2024-02-28T05:55:15;8.40;99.90
4390;DHT22;2209;48.982;8.406;2024-02-28T05:57:38;8.30;99.90
4390;DHT22;2209;48.982;8.406;2024-02-28T06:00:01;8.30;99.90
4390;DHT22;2209;48.982;8.406;2024-02-28T06:02:30;8.10;99.90
4390;DHT22;2209;48.982;8.406;2024-02-28T06:04:52;8.10;99.90
4390;DHT22;2209;48.982;8.406;2024-02-28T06:07:14;8.10;99.90
4390;DHT22;2209;48.982;8.406;2024-02-28T06:09:36;8.10;99.90
4390;DHT22;2209;48.982;8.406;2024-02-28T06:11:59;8.20;99.90
4390;DHT22;2209;48.982;8.406;2024-02-28T06:14:22;8.20;99.90
4390;DHT22;2209;48.982;8.406;2024-02-28T06:16:48;8.30;99.90
4390;DHT22;2209;48.982;8.406;2024-02-28T06:19:10;8.30;99.90
4390;DHT22;2209;48.982;8.406;2024-02-28T06:21:32;8.30;99.90
4390;DHT22;2209;48.982;8.406;2024-02-28T06:23:54;8.40;99.90
4390;DHT22;2209;48.982;8.406;2024-02-28T06:26:16;8.30;99.90
4390;DHT22;2209;48.982;8.406;2024-02-28T06:28:39;8.40;99.90
4390;DHT22;2209;48.982;8.406;2024-02-28T06:31:03;8.40;99.90
4390;DHT22;2209;48.982;8.406;2024-02-28T06:33:27;8.30;99.90
4390;DHT22;2209;48.982;8.406;2024-02-28T06:35:49;8.40;99.90
4390;DHT22;2209;48.982;8.406;2024-02-28T06:38:11;8.30;99.90
4390;DHT22;2209;48.982;8.406;2024-02-28T06:40:33;8.40;99.90
4390;DHT22;2209;48.982;8.406;2024-02-28T06:42:55;8.30;99.90
4390;DHT22;2209;48.982;8.406;2024-02-28T06:45:18;8.10;99.90
4390;DHT22;2209;48.982;8.406;2024-02-28T06:47:39;8.00;99.90
4390;DHT22;2209;48.982;8.406;2024-02-28T06:50:03;7.90;99.90
4390;DHT22;2209;48.982;8.406;2024-02-28T06:52:26;7.70;99.90
4390;DHT22;2209;48.982;8.406;2024-02-28T06:54:48;7.50;99.90
4390;DHT22;2209;48.982;8.406;2024-02-28T06:57:10;7.50;99.90
4390;DHT22;2209;48.982;8.406;2024-02-28T06:59:32;7.40;99.90
4390;DHT22;2209;48.982;8.406;2024-02-28T07:01:54;7.40;99.90
4390;DHT22;2209;48.982;8.406;2024-02-28T07:04:16;7.40;99.90
4390;DHT22;2209;48.982;8.406;2024-02-28T07:06:40;7.50;99.90
4390;DHT22;2209;48.982;8.406;2024-02-28T07:09:02;7.60;99.90
4390;DHT22;2209;48.982;8.406;2024-02-28T07:11:24;7.70;99.90
4390;DHT22;2209;48.982;8.406;2024-02-28T07:13:47;7.80;99.90
4390;DHT22;2209;48.982;8.406;2024-02-28T07:16:09;7.90;99.90
4390;DHT22;2209;48.982;8.406;2024-02-28T07:18:31;7.90;99.90
4390;DHT22;2209;48.982;8.406;2024-02-28T07:20:53;8.00;99.90
4390;DHT22;2209;48.982;8.406;2024-02-28T07:23:17;8.00;99.90
4390;DHT22;2209;48.982;8.406;2024-02-28T07:25:39;8.10;99.90
4390;DHT22;2209;48.982;8.406;2024-02-28T07:28:01;8.10;99.90
4390;DHT22;2209;48.982;8.406;2024-02-28T07:30:24;8.10;99.90
4390;DHT22;2209;48.982;8.406;2024-02-28T07:32:46;8.20;99.90
4390;DHT22;2209;48.982;8.406;2024-02-28T07:35:08;8.20;99.90
4390;DHT22;2209;48.982;8.406;2024-02-28T07:37:31;8.20;99.90
4390;DHT22;2209;48.982;8.406;2024-02-28T07:39:54;8.20;99.90
4390;DHT22;2209;48.982;8.406;2024-02-28T07:42:16;8.20;99.90
4390;DHT22;2209;48.982;8.406;2024-02-28T07:44:39;8.30;99.90
4390;DHT22;2209;48.982;8.406;2024-02-28T07:47:02;8.30;99.90
4390;DHT22;2209;48.982;8.406;2024-02-28T07:49:24;8.30;99.90
4390;DHT22;2209;48.982;8.406;2024-02-28T07:51:46;8.30;99.90
4390;DHT22;2209;48.982;8.406;2024-02-28T07:54:08;8.30;99.90
4390;DHT22;2209;48.982;8.406;2024-02-28T07:56:32;8.30;99.90
4390;DHT22;2209;48.982;8.406;2024-02-28T07:58:54;8.30;99.90
4390;DHT22;2209;48.982;8.406;2024-02-28T08:01:17;8.30;99.90
4390;DHT22;2209;48.982;8.406;2024-02-28T08:03:39;8.30;99.90
4390;DHT22;2209;48.982;8.406;2024-02-28T08:06:02;8.30;99.90
4390;DHT22;2209;48.982;8.406;2024-02-28T08:08:25;8.30;99.90
4390;DHT22;2209;48.982;8.406;2024-02-28T08:10:48;8.30;99.90
4390;DHT22;2209;48.982;8.406;2024-02-28T08:13:14;8.30;99.90
4390;DHT22;2209;48.982;8.406;2024-02-28T08:15:36;8.30;99.90
4390;DHT22;2209;48.982;8.406;2024-02-28T08:17:58;8.30;99.90
4390;DHT22;2209;48.982;8.406;2024-02-28T08:20:20;8.30;99.90
4390;DHT22;2209;48.982;8.406;2024-02-28T08:22:42;8.30;99.90
4390;DHT22;2209;48.982;8.406;2024-02-28T08:25:05;8.30;99.90
4390;DHT22;2209;48.982;8.406;2024-02-28T08:27:27;8.30;99.90
4390;DHT22;2209;48.982;8.406;2024-02-28T08:29:51;8.30;99.90
4390;DHT22;2209;48.982;8.406;2024-02-28T08:32:13;8.30;99.90
4390;DHT22;2209;48.982;8.406;2024-02-28T08:34:35;8.30;99.90
4390;DHT22;2209;48.982;8.406;2024-02-28T08:36:57;8.30;99.90
4390;DHT22;2209;48.982;8.406;2024-02-28T08:39:19;8.30;99.90
4390;DHT22;2209;48.982;8.406;2024-02-28T08:41:41;8.30;99.90
4390;DHT22;2209;48.982;8.406;2024-02-28T08:44:04;8.20;99.90
4390;DHT22;2209;48.982;8.406;2024-02-28T08:46:29;8.20;99.90
4390;DHT22;2209;48.982;8.406;2024-02-28T08:48:51;8.20;99.90
4390;DHT22;2209;48.982;8.406;2024-02-28T08:51:13;8.20;99.90
4390;DHT22;2209;48.982;8.406;2024-02-28T08:53:35;8.20;99.90
4390;DHT22;2209;48.982;8.406;2024-02-28T08:55:58;8.20;99.90
4390;DHT22;2209;48.982;8.406;2024-02-28T08:58:20;8.20;99.90
4390;DHT22;2209;48.982;8.406;2024-02-28T09:00:42;8.20;99.90
4390;DHT22;2209;48.982;8.406;2024-02-28T09:03:06;8.20;99.90
4390;DHT22;2209;48.982;8.406;2024-02-28T09:05:28;8.20;99.90
4390;DHT22;2209;48.982;8.406;2024-02-28T09:07:50;8.20;99.90
4390;DHT22;2209;48.982;8.406;2024-02-28T09:10:15;8.20;99.90
4390;DHT22;2209;48.982;8.406;2024-02-28T09:12:42;8.20;99.90
4390;DHT22;2209;48.982;8.406;2024-02-28T09:15:04;8.10;99.90
4390;DHT22;2209;48.982;8.406;2024-02-28T09:17:27;8.20;99.90
4390;DHT22;2209;48.982;8.406;2024-02-28T09:19:50;8.10;99.90
4390;DHT22;2209;48.982;8.406;2024-02-28T09:22:13;8.20;99.90
4390;DHT22;2209;48.982;8.406;2024-02-28T09:24:37;8.20;99.90
4390;DHT22;2209;48.982;8.406;2024-02-28T09:26:59;8.20;99.90
4390;DHT22;2209;48.982;8.406;2024-02-28T09:29:21;8.20;99.90
4390;DHT22;2209;48.982;8.406;2024-02-28T09:31:43;8.20;99.90
4390;DHT22;2209;48.982;8.406;2024-02-28T09:34:05;8.20;99.90
4390;DHT22;2209;48.982;8.406;2024-02-28T09:36:31;8.20;99.90
4390;DHT22;2209;48.982;8.406;2024-02-28T09:38:53;8.20;99.90
4390;DHT22;2209;48.982;8.406;2024-02-28T09:41:16;8.30;99.90
4390;DHT22;2209;48.982;8.406;2024-02-28T09:43:40;8.20;99.90
4390;DHT22;2209;48.982;8.406;2024-02-28T09:46:04;8.20;99.90
4390;DHT22;2209;48.982;8.406;2024-02-28T09:48:27;8.10;99.90
4390;DHT22;2209;48.982;8.406;2024-02-28T09:50:50;8.10;99.90
4390;DHT22;2209;48.982;8.406;2024-02-28T09:53:14;8.10;99.90
4390;DHT22;2209;48.982;8.406;2024-02-28T09:55:36;8.10;99.90
4390;DHT22;2209;48.982;8.406;2024-02-28T09:57:58;8.20;99.90
4390;DHT22;2209;48.982;8.406;2024-02-28T10:00:21;8.10;99.90
4390;DHT22;2209;48.982;8.406;2024-02-28T10:02:45;8.10;99.90
4390;DHT22;2209;48.982;8.406;2024-02-28T10:05:08;8.10;99.90
4390;DHT22;2209;48.982;8.406;2024-02-28T10:07:31;8.10;99.90
4390;DHT22;2209;48.982;8.406;2024-02-28T10:09:55;8.20;99.90
4390;DHT22;2209;48.982;8.406;2024-02-28T10:12:17;8.20;99.90
4390;DHT22;2209;48.982;8.406;2024-02-28T10:14:39;8.20;99.90
4390;DHT22;2209;48.982;8.406;2024-02-28T10:17:02;8.10;99.90
4390;DHT22;2209;48.982;8.406;2024-02-28T10:19:25;8.10;99.90
4390;DHT22;2209;48.982;8.406;2024-02-28T10:21:47;8.20;99.90
4390;DHT22;2209;48.982;8.406;2024-02-28T10:24:12;8.20;99.90
4390;DHT22;2209;48.982;8.406;2024-02-28T10:26:43;8.30;99.90
4390;DHT22;2209;48.982;8.406;2024-02-28T10:29:05;8.20;99.90
4390;DHT22;2209;48.982;8.406;2024-02-28T10:31:27;8.30;99.90
4390;DHT22;2209;48.982;8.406;2024-02-28T10:33:50;8.30;99.90
4390;DHT22;2209;48.982;8.406;2024-02-28T10:36:12;8.40;99.90
4390;DHT22;2209;48.982;8.406;2024-02-28T10:38:34;8.50;99.90
4390;DHT22;2209;48.982;8.406;2024-02-28T10:40:57;8.50;99.90
4390;DHT22;2209;48.982;8.406;2024-02-28T10:43:22;8.60;99.90
4390;DHT22;2209;48.982;8.406;2024-02-28T10:45:45;8.60;99.90
4390;DHT22;2209;48.982;8.406;2024-02-28T10:48:08;8.50;99.90
4390;DHT22;2209;48.982;8.406;2024-02-28T10:50:31;8.40;99.90
4390;DHT22;2209;48.982;8.406;2024-02-28T10:52:54;8.40;99.90
4390;DHT22;2209;48.982;8.406;2024-02-28T10:55:22;8.40;99.90
4390;DHT22;2209;48.982;8.406;2024-02-28T10:57:45;8.40;99.90
4390;DHT22;2209;48.982;8.406;2024-02-28T11:00:12;8.50;99.90
4390;DHT22;2209;48.982;8.406;2024-02-28T11:02:37;8.60;99.90
4390;DHT22;2209;48.982;8.406;2024-02-28T11:05:01;8.60;99.90
4390;DHT22;2209;48.982;8.406;2024-02-28T11:07:24;8.70;99.90
4390;DHT22;2209;48.982;8.406;2024-02-28T11:09:53;8.80;99.90
4390;DHT22;2209;48.982;8.406;2024-02-28T11:12:25;8.80;99.90
4390;DHT22;2209;48.982;8.406;2024-02-28T11:14:56;8.80;99.90
4390;DHT22;2209;48.982;8.406;2024-02-28T11:17:26;8.70;99.90
4390;DHT22;2209;48.982;8.406;2024-02-28T11:19:49;8.70;99.90
4390;DHT22;2209;48.982;8.406;2024-02-28T11:22:12;8.70;99.90
4390;DHT22;2209;48.982;8.406;2024-02-28T11:24:35;8.70;99.90
4390;DHT22;2209;48.982;8.406;2024-02-28T11:26:58;8.70;99.90
4390;DHT22;2209;48.982;8.406;2024-02-28T11:29:26;8.70;99.90
4390;DHT22;2209;48.982;8.406;2024-02-28T11:31:49;8.70;99.90
4390;DHT22;2209;48.982;8.406;2024-02-28T11:34:13;8.70;99.90
4390;DHT22;2209;48.982;8.406;2024-02-28T11:36:36;8.80;99.90
4390;DHT22;2209;48.982;8.406;2024-02-28T11:38:58;8.80;99.90
4390;DHT22;2209;48.982;8.406;2024-02-28T11:41:27;8.90;99.90
4390;DHT22;2209;48.982;8.406;2024-02-28T11:43:49;9.00;99.90
4390;DHT22;2209;48.982;8.406;2024-02-28T11:46:12;9.00;99.90
4390;DHT22;2209;48.982;8.406;2024-02-28T11:48:34;9.00;99.90
4390;DHT22;2209;48.982;8.406;2024-02-28T11:50:59;9.00;99.90
4390;DHT22;2209;48.982;8.406;2024-02-28T11:53:21;9.00;99.90
4390;DHT22;2209;48.982;8.406;2024-02-28T11:55:45;9.00;99.90
4390;DHT22;2209;48.982;8.406;2024-02-28T11:58:08;9.00;99.90
4390;DHT22;2209;48.982;8.406;2024-02-28T12:00:31;9.00;99.90
4390;DHT22;2209;48.982;8.406;2024-02-28T12:03:04;9.00;99.90
4390;DHT22;2209;48.982;8.406;2024-02-28T12:05:27;9.00;99.90
4390;DHT22;2209;48.982;8.406;2024-02-28T12:07:51;9.00;99.90
4390;DHT22;2209;48.982;8.406;2024-02-28T12:10:16;9.10;99.90
4390;DHT22;2209;48.982;8.406;2024-02-28T12:12:39;9.00;99.90
4390;DHT22;2209;48.982;8.406;2024-02-28T12:15:02;9.10;99.90
4390;DHT22;2209;48.982;8.406;2024-02-28T12:17:26;9.10;99.90
4390;DHT22;2209;48.982;8.406;2024-02-28T12:19:49;9.10;99.90
4390;DHT22;2209;48.982;8.406;2024-02-28T12:22:11;9.00;99.90
4390;DHT22;2209;48.982;8.406;2024-02-28T12:24:35;9.00;99.90
4390;DHT22;2209;48.982;8.406;2024-02-28T12:26:58;9.00;99.90
4390;DHT22;2209;48.982;8.406;2024-02-28T12:29:20;9.00;99.90
4390;DHT22;2209;48.982;8.406;2024-02-28T12:31:43;9.10;99.90
4390;DHT22;2209;48.982;8.406;2024-02-28T12:34:05;9.10;99.90
4390;DHT22;2209;48.982;8.406;2024-02-28T12:36:27;9.10;99.90
4390;DHT22;2209;48.982;8.406;2024-02-28T12:38:50;9.10;99.90
4390;DHT22;2209;48.982;8.406;2024-02-28T12:41:14;9.10;99.90
4390;DHT22;2209;48.982;8.406;2024-02-28T12:43:36;9.10;99.90
4390;DHT22;2209;48.982;8.406;2024-02-28T12:46:00;9.20;99.90
4390;DHT22;2209;48.982;8.406;2024-02-28T12:48:24;9.20;99.90
4390;DHT22;2209;48.982;8.406;2024-02-28T12:50:46;9.30;99.90
4390;DHT22;2209;48.982;8.406;2024-02-28T12:53:08;9.30;99.90
4390;DHT22;2209;48.982;8.406;2024-02-28T12:55:31;9.40;99.90
4390;DHT22;2209;48.982;8.406;2024-02-28T12:57:54;9.40;99.90
4390;DHT22;2209;48.982;8.406;2024-02-28T13:00:17;9.50;99.90
4390;DHT22;2209;48.982;8.406;2024-02-28T13:02:39;9.50;99.90
4390;DHT22;2209;48.982;8.406;2024-02-28T13:05:02;9.50;99.90
4390;DHT22;2209;48.982;8.406;2024-02-28T13:07:24;9.60;99.90
4390;DHT22;2209;48.982;8.406;2024-02-28T13:09:46;9.60;99.90
4390;DHT22;2209;48.982;8.406;2024-02-28T13:12:08;9.60;99.90
4390;DHT22;2209;48.982;8.406;2024-02-28T13:14:32;9.60;99.90
4390;DHT22;2209;48.982;8.406;2024-02-28T13:16:54;9.60;99.90
4390;DHT22;2209;48.982;8.406;2024-02-28T13:19:17;9.70;99.90
4390;DHT22;2209;48.982;8.406;2024-02-28T13:21:39;9.80;99.90
4390;DHT22;2209;48.982;8.406;2024-02-28T13:24:01;9.80;99.90
4390;DHT22;2209;48.982;8.406;2024-02-28T13:26:25;9.80;99.90
4390;DHT22;2209;48.982;8.406;2024-02-28T13:28:47;9.90;99.90
4390;DHT22;2209;48.982;8.406;2024-02-28T13:31:11;10.00;99.90
4390;DHT22;2209;48.982;8.406;2024-02-28T13:33:33;10.00;99.90
4390;DHT22;2209;48.982;8.406;2024-02-28T13:35:57;10.10;99.90
4390;DHT22;2209;48.982;8.406;2024-02-28T13:38:20;10.20;99.90
4390;DHT22;2209;48.982;8.406;2024-02-28T13:40:42;10.30;99.90
4390;DHT22;2209;48.982;8.406;2024-02-28T13:43:05;10.30;99.90
4390;DHT22;2209;48.982;8.406;2024-02-28T13:45:28;10.40;99.90
4390;DHT22;2209;48.982;8.406;2024-02-28T13:47:51;10.40;99.90
4390;DHT22;2209;48.982;8.406;2024-02-28T13:50:13;10.40;99.90
4390;DHT22;2209;48.982;8.406;2024-02-28T13:52:36;10.50;99.90
4390;DHT22;2209;48.982;8.406;2024-02-28T13:54:58;10.50;99.90
4390;DHT22;2209;48.982;8.406;2024-02-28T13:57:20;10.50;99.90
4390;DHT22;2209;48.982;8.406;2024-02-28T13:59:42;10.60;99.90
4390;DHT22;2209;48.982;8.406;2024-02-28T14:02:07;10.70;99.90
4390;DHT22;2209;48.982;8.406;2024-02-28T14:04:32;10.70;99.90
4390;DHT22;2209;48.982;8.406;2024-02-28T14:06:54;10.80;99.90
4390;DHT22;2209;48.982;8.406;2024-02-28T14:09:17;10.90;99.90
4390;DHT22;2209;48.982;8.406;2024-02-28T14:11:39;11.00;99.90
4390;DHT22;2209;48.982;8.406;2024-02-28T14:14:01;11.10;99.90
4390;DHT22;2209;48.982;8.406;2024-02-28T14:16:23;11.10;99.90
4390;DHT22;2209;48.982;8.406;2024-02-28T14:18:46;11.20;99.90
4390;DHT22;2209;48.982;8.406;2024-02-28T14:21:09;11.30;99.90
4390;DHT22;2209;48.982;8.406;2024-02-28T14:23:31;11.30;99.90
4390;DHT22;2209;48.982;8.406;2024-02-28T14:25:53;11.40;99.90
4390;DHT22;2209;48.982;8.406;2024-02-28T14:28:15;11.50;99.90
4390;DHT22;2209;48.982;8.406;2024-02-28T14:30:40;11.50;99.90
4390;DHT22;2209;48.982;8.406;2024-02-28T14:33:04;11.50;99.90
4390;DHT22;2209;48.982;8.406;2024-02-28T14:35:26;11.50;99.90
4390;DHT22;2209;48.982;8.406;2024-02-28T14:37:49;11.60;99.90
4390;DHT22;2209;48.982;8.406;2024-02-28T14:40:13;11.60;99.90
4390;DHT22;2209;48.982;8.406;2024-02-28T14:42:35;11.60;99.90
4390;DHT22;2209;48.982;8.406;2024-02-28T14:44:57;11.60;99.90
4390;DHT22;2209;48.982;8.406;2024-02-28T14:47:20;11.70;99.90
4390;DHT22;2209;48.982;8.406;2024-02-28T14:49:42;11.70;99.90
4390;DHT22;2209;48.982;8.406;2024-02-28T14:52:04;11.80;99.90
4390;DHT22;2209;48.982;8.406;2024-02-28T14:54:28;11.80;99.90
4390;DHT22;2209;48.982;8.406;2024-02-28T14:56:50;11.90;99.90
4390;DHT22;2209;48.982;8.406;2024-02-28T14:59:12;12.00;99.90
4390;DHT22;2209;48.982;8.406;2024-02-28T15:01:35;11.90;99.90
4390;DHT22;2209;48.982;8.406;2024-02-28T15:04:00;11.90;99.90
4390;DHT22;2209;48.982;8.406;2024-02-28T15:06:24;11.90;99.90
4390;DHT22;2209;48.982;8.406;2024-02-28T15:08:46;12.00;99.90
4390;DHT22;2209;48.982;8.406;2024-02-28T15:11:11;12.00;99.90
4390;DHT22;2209;48.982;8.406;2024-02-28T15:13:33;12.10;99.90
4390;DHT22;2209;48.982;8.406;2024-02-28T15:15:55;12.10;99.90
4390;DHT22;2209;48.982;8.406;2024-02-28T15:18:17;12.20;99.90
4390;DHT22;2209;48.982;8.406;2024-02-28T15:20:40;12.20;99.90
4390;DHT22;2209;48.982;8.406;2024-02-28T15:23:03;12.20;99.90
4390;DHT22;2209;48.982;8.406;2024-02-28T15:25:25;12.20;99.90
4390;DHT22;2209;48.982;8.406;2024-02-28T15:27:49;12.30;99.90
4390;DHT22;2209;48.982;8.406;2024-02-28T15:30:12;12.30;99.90
4390;DHT22;2209;48.982;8.406;2024-02-28T15:32:34;12.30;99.90
4390;DHT22;2209;48.982;8.406;2024-02-28T15:35:00;12.20;99.90
4390;DHT22;2209;48.982;8.406;2024-02-28T15:37:22;12.20;99.90
4390;DHT22;2209;48.982;8.406;2024-02-28T15:39:44;12.30;99.90
4390;DHT22;2209;48.982;8.406;2024-02-28T15:42:07;12.30;99.90
4390;DHT22;2209;48.982;8.406;2024-02-28T15:44:31;12.30;99.90